createdAt,value
2023-04-02T00:02:00.905Z,74
2023-04-02T00:04:31.839Z,74
2023-04-02T00:07:01.775Z,73
2023-04-02T00:09:32.185Z,73
2023-04-02T00:12:02.499Z,74
2023-04-02T00:14:33.870Z,74
2023-04-02T00:17:04.687Z,74
2023-04-02T00:19:35.212Z,74
2023-04-02T00:22:06.431Z,74
2023-04-02T00:24:36.825Z,74
2023-04-02T00:27:06.905Z,74
2023-04-02T00:29:38.031Z,74
2023-04-02T00:32:08.792Z,74
2023-04-02T00:34:41.238Z,74
2023-04-02T00:37:11.343Z,73
2023-04-02T00:39:42.109Z,74
2023-04-02T00:42:16.438Z,74
2023-04-02T00:44:47.288Z,75
2023-04-02T00:47:18.165Z,74
2023-04-02T00:49:49.065Z,74
2023-04-02T00:52:19.028Z,74
2023-04-02T00:54:49.517Z,74
2023-04-02T00:57:20.261Z,73
2023-04-02T00:59:54.250Z,73
2023-04-02T01:02:24.866Z,74
2023-04-02T01:04:54.885Z,74
2023-04-02T01:07:24.783Z,73
2023-04-02T01:09:54.886Z,73
2023-04-02T01:12:25.101Z,73
2023-04-02T01:14:55.367Z,73
2023-04-02T01:17:25.330Z,73
2023-04-02T01:19:55.898Z,73
2023-04-02T01:22:26.202Z,73
2023-04-02T01:24:56.630Z,73
2023-04-02T01:27:26.856Z,73
2023-04-02T01:29:57.309Z,73
2023-04-02T01:32:28.581Z,73
2023-04-02T01:34:59.148Z,73
2023-04-02T01:37:29.509Z,73
2023-04-02T01:39:59.566Z,73
2023-04-02T01:42:29.765Z,74
2023-04-02T01:45:00.173Z,74
2023-04-02T01:47:30.143Z,75
2023-04-02T01:50:00.557Z,75
2023-04-02T01:52:32.136Z,75
2023-04-02T01:55:02.532Z,75
2023-04-02T01:57:32.743Z,75
2023-04-02T02:00:03.487Z,75
2023-04-02T02:02:33.840Z,75
2023-04-02T02:05:04.826Z,74
2023-04-02T02:07:35.258Z,74
2023-04-02T02:10:05.100Z,73
2023-04-02T02:12:36.527Z,73
2023-04-02T02:15:06.678Z,73
2023-04-02T02:17:37.117Z,74
2023-04-02T02:20:07.193Z,74
2023-04-02T02:22:37.586Z,74
2023-04-02T02:25:08.114Z,74
2023-04-02T02:27:39.364Z,75
2023-04-02T02:30:09.881Z,75
2023-04-02T02:32:40.689Z,76
2023-04-02T02:35:10.868Z,75
2023-04-02T02:37:41.686Z,74
2023-04-02T02:40:11.811Z,74
2023-04-02T02:42:42.699Z,74
2023-04-02T02:45:17.056Z,74
2023-04-02T02:47:48.189Z,73
2023-04-02T02:50:17.111Z,74
2023-04-02T02:52:47.317Z,74
2023-04-02T02:55:17.612Z,74
2023-04-02T02:57:48.281Z,74
2023-04-02T03:00:18.982Z,74
2023-04-02T03:02:51.164Z,74
2023-04-02T03:05:26.746Z,74
2023-04-02T03:07:56.836Z,76
2023-04-02T03:10:26.805Z,76
2023-04-02T03:12:57.027Z,76
2023-04-02T03:15:27.665Z,76
2023-04-02T03:17:58.091Z,76
2023-04-02T03:20:28.876Z,76
2023-04-02T03:22:59.358Z,75
2023-04-02T03:25:29.915Z,74
2023-04-02T03:28:02.096Z,74
2023-04-02T03:30:33.100Z,74
2023-04-02T03:33:03.521Z,75
2023-04-02T03:35:34.199Z,75
2023-04-02T03:38:04.593Z,75
2023-04-02T03:40:35.127Z,76
2023-04-02T03:43:07.647Z,75
2023-04-02T03:45:39.118Z,75
2023-04-02T03:48:09.834Z,75
2023-04-02T03:50:39.860Z,76
2023-04-02T03:53:10.316Z,76
2023-04-02T03:55:40.815Z,76
2023-04-02T03:58:11.547Z,76
2023-04-02T04:00:47.792Z,76
2023-04-02T04:03:18.571Z,75
2023-04-02T04:05:50.485Z,75
2023-04-02T04:08:21.956Z,75
2023-04-02T04:10:52.433Z,75
2023-04-02T04:13:22.798Z,75
2023-04-02T04:15:53.523Z,75
2023-04-02T04:18:25.208Z,75
2023-04-02T04:20:55.221Z,75
2023-04-02T04:23:25.806Z,75
2023-04-02T04:25:56.252Z,75
2023-04-02T04:28:26.594Z,75
2023-04-02T04:30:57.343Z,75
2023-04-02T04:33:27.475Z,75
2023-04-02T04:35:58.351Z,75
2023-04-02T04:38:28.587Z,75
2023-04-02T04:40:58.959Z,75
2023-04-02T04:43:31.367Z,75
2023-04-02T04:46:01.726Z,75
2023-04-02T04:48:35.150Z,75
2023-04-02T04:51:03.660Z,74
2023-04-02T04:53:36.206Z,74
2023-04-02T04:56:18.363Z,74
2023-04-02T04:58:39.442Z,73
2023-04-02T05:01:09.569Z,73
2023-04-02T05:03:40.346Z,73
2023-04-02T05:06:10.390Z,73
2023-04-02T05:08:41.090Z,73
2023-04-02T05:11:11.903Z,73
2023-04-02T05:13:42.408Z,73
2023-04-02T05:16:12.876Z,73
2023-04-02T05:18:43.765Z,72
2023-04-02T05:21:14.204Z,72
2023-04-02T05:23:44.535Z,72
2023-04-02T05:26:15.467Z,72
2023-04-02T05:28:45.562Z,72
2023-04-02T05:31:16.010Z,72
2023-04-02T05:33:46.563Z,73
2023-04-02T05:36:16.804Z,73
2023-04-02T05:38:47.314Z,72
2023-04-02T05:41:17.666Z,72
2023-04-02T05:43:47.896Z,73
2023-04-02T05:46:18.216Z,72
2023-04-02T05:48:49.265Z,73
2023-04-02T05:51:19.674Z,73
2023-04-02T05:53:51.010Z,73
2023-04-02T05:56:21.743Z,72
2023-04-02T05:58:52.048Z,72
2023-04-02T06:01:22.006Z,72
2023-04-02T06:03:52.911Z,72
2023-04-02T06:06:23.068Z,72
2023-04-02T06:08:54.332Z,72
2023-04-02T06:11:25.366Z,72
2023-04-02T06:13:55.746Z,72
2023-04-02T06:16:26.510Z,73
2023-04-02T06:18:59.525Z,74
2023-04-02T06:21:30.049Z,74
2023-04-02T06:24:00.561Z,75
2023-04-02T06:26:32.577Z,74
2023-04-02T06:29:03.065Z,74
2023-04-02T06:31:34.028Z,74
2023-04-02T06:34:04.118Z,74
2023-04-02T06:36:35.040Z,74
2023-04-02T06:39:05.828Z,74
2023-04-02T06:41:36.085Z,74
2023-04-02T06:44:10.052Z,73
2023-04-02T06:46:40.571Z,72
2023-04-02T06:49:11.239Z,72
2023-04-02T06:51:41.662Z,71
2023-04-02T06:54:11.933Z,71
2023-04-02T06:56:44.951Z,70
2023-04-02T06:59:15.638Z,69
2023-04-02T07:01:46.400Z,69
2023-04-02T07:04:17.136Z,67
2023-04-02T07:06:48.228Z,66
2023-04-02T07:09:23.477Z,66
2023-04-02T07:11:53.665Z,66
2023-04-02T07:14:25.044Z,66
2023-04-02T07:16:56.102Z,65
2023-04-02T07:19:26.364Z,65
2023-04-02T07:21:56.719Z,65
2023-04-02T07:24:27.180Z,64
2023-04-02T07:26:57.248Z,64
2023-04-02T07:29:28.150Z,64
2023-04-02T07:31:58.748Z,66
2023-04-02T07:34:35.027Z,64
2023-04-02T07:37:05.268Z,62
2023-04-02T07:39:40.660Z,63
2023-04-02T07:42:08.846Z,62
2023-04-02T07:44:37.808Z,62
2023-04-02T07:47:08.228Z,61
2023-04-02T07:49:38.540Z,61
2023-04-02T07:52:08.795Z,61
2023-04-02T07:54:39.430Z,61
2023-04-02T07:57:10.111Z,61
2023-04-02T07:59:40.704Z,61
2023-04-02T08:02:10.993Z,61
2023-04-02T08:04:41.234Z,61
2023-04-02T08:07:12.307Z,62
2023-04-02T08:09:42.872Z,61
2023-04-02T08:12:13.259Z,62
2023-04-02T08:14:43.902Z,60
2023-04-02T08:17:14.584Z,60
2023-04-02T08:19:54.552Z,60
2023-04-02T08:22:16.027Z,60
2023-04-02T08:24:46.331Z,60
2023-04-02T08:27:16.498Z,60
2023-04-02T08:29:46.709Z,60
2023-04-02T08:32:17.065Z,59
2023-04-02T08:34:47.483Z,59
2023-04-02T08:37:18.709Z,59
2023-04-02T08:39:48.866Z,59
2023-04-02T08:42:19.328Z,59
2023-04-02T08:44:49.620Z,59
2023-04-02T08:47:19.869Z,59
2023-04-02T08:49:48.390Z,60
2023-04-02T08:52:18.578Z,57
2023-04-02T08:54:48.771Z,58
2023-04-02T08:57:19.458Z,58
2023-04-02T08:59:49.690Z,57
2023-04-02T09:02:20.394Z,57
2023-04-02T09:04:51.074Z,57
2023-04-02T09:07:21.706Z,57
2023-04-02T09:09:52.412Z,56
2023-04-02T09:12:22.737Z,55
2023-04-02T09:14:53.162Z,55
2023-04-02T09:17:22.265Z,56
2023-04-02T09:19:52.788Z,56
2023-04-02T09:22:23.626Z,56
2023-04-02T09:24:54.071Z,55
2023-04-02T09:27:26.380Z,55
2023-04-02T09:29:56.803Z,56
2023-04-02T09:32:27.185Z,55
2023-04-02T09:34:57.898Z,55
2023-04-02T09:37:29.121Z,56
2023-04-02T09:39:59.423Z,55
2023-04-02T09:42:29.665Z,56
2023-04-02T09:45:00.235Z,55
2023-04-02T09:47:30.322Z,54
2023-04-02T09:50:01.016Z,55
2023-04-02T09:52:31.830Z,55
2023-04-02T09:55:02.248Z,54
2023-04-02T09:57:33.084Z,55
2023-04-02T10:00:03.481Z,54
2023-04-02T10:02:33.800Z,54
2023-04-02T10:05:04.751Z,54
2023-04-02T10:07:33.163Z,54
2023-04-02T10:10:03.203Z,55
2023-04-02T10:12:33.289Z,54
2023-04-02T10:15:03.686Z,54
2023-04-02T10:17:33.678Z,54
2023-04-02T10:20:03.631Z,54
2023-04-02T10:22:33.967Z,54
2023-04-02T10:25:04.189Z,55
2023-04-02T10:27:34.415Z,54
2023-04-02T10:30:05.176Z,53
2023-04-02T10:32:35.121Z,52
2023-04-02T10:35:05.240Z,53
2023-04-02T10:37:35.345Z,53
2023-04-02T10:40:05.953Z,53
2023-04-02T10:42:36.010Z,53
2023-04-02T10:45:06.756Z,53
2023-04-02T10:47:37.334Z,52
2023-04-02T10:50:07.891Z,51
2023-04-02T10:52:38.369Z,52
2023-04-02T10:55:07.235Z,53
2023-04-02T10:57:37.482Z,53
2023-04-02T11:00:07.407Z,54
2023-04-02T11:02:37.374Z,53
2023-04-02T11:05:07.863Z,52
2023-04-02T11:07:38.426Z,54
2023-04-02T11:10:08.651Z,52
2023-04-02T11:12:41.459Z,53
2023-04-02T11:15:09.692Z,52
2023-04-02T11:17:40.047Z,53
2023-04-02T11:20:10.367Z,53
2023-04-02T11:22:41.761Z,53
2023-04-02T11:25:12.341Z,52
2023-04-02T11:27:42.460Z,51
2023-04-02T11:30:12.835Z,52
2023-04-02T11:32:43.372Z,51
2023-04-02T11:35:13.763Z,51
2023-04-02T11:37:43.798Z,51
2023-04-02T11:40:14.632Z,51
2023-04-02T11:42:44.736Z,50
2023-04-02T11:45:15.112Z,50
2023-04-02T11:47:45.719Z,50
2023-04-02T11:50:15.994Z,50
2023-04-02T11:52:46.406Z,49
2023-04-02T11:55:16.542Z,49
2023-04-02T11:57:47.754Z,49
2023-04-02T12:00:18.253Z,49
2023-04-02T12:02:49.085Z,48
2023-04-02T12:05:19.688Z,49
2023-04-02T12:07:49.686Z,48
2023-04-02T12:10:20.355Z,47
2023-04-02T12:12:50.591Z,47
2023-04-02T12:15:21.008Z,46
2023-04-02T12:17:51.438Z,46
2023-04-02T12:20:21.546Z,47
2023-04-02T12:22:51.929Z,47
2023-04-02T12:25:22.527Z,46
2023-04-02T12:27:53.018Z,46
2023-04-02T12:30:22.345Z,47
2023-04-02T12:32:52.636Z,47
2023-04-02T12:35:23.041Z,46
2023-04-02T12:37:53.137Z,48
2023-04-02T12:40:23.322Z,47
2023-04-02T12:42:54.138Z,48
2023-04-02T12:45:27.225Z,47
2023-04-02T12:47:55.637Z,48
2023-04-02T12:50:27.009Z,48
2023-04-02T12:52:57.003Z,48
2023-04-02T12:55:27.059Z,49
2023-04-02T12:57:57.437Z,50
2023-04-02T13:00:27.457Z,51
2023-04-02T13:02:57.647Z,52
2023-04-02T13:05:28.055Z,52
2023-04-02T13:07:58.419Z,54
2023-04-02T13:10:29.011Z,54
2023-04-02T13:12:59.171Z,54
2023-04-02T13:15:30.605Z,55
2023-04-02T13:18:01.439Z,56
2023-04-02T13:20:31.751Z,56
2023-04-02T13:23:03.570Z,57
2023-04-02T13:25:33.966Z,57
2023-04-02T13:28:02.954Z,58
2023-04-02T13:30:33.866Z,59
2023-04-02T13:33:05.140Z,59
2023-04-02T13:35:35.247Z,59
2023-04-02T13:38:04.053Z,60
2023-04-02T13:40:35.095Z,60
2023-04-02T13:43:05.467Z,60
2023-04-02T13:45:35.823Z,60
2023-04-02T13:48:06.426Z,62
2023-04-02T13:50:36.788Z,62
2023-04-02T13:53:10.355Z,62
2023-04-02T13:55:38.420Z,62
2023-04-02T13:58:12.983Z,63
2023-04-02T14:00:44.317Z,62
2023-04-02T14:03:14.257Z,62
2023-04-02T14:05:44.903Z,61
2023-04-02T14:08:15.291Z,61
2023-04-02T14:10:46.486Z,61
2023-04-02T14:13:16.511Z,60
2023-04-02T14:15:47.824Z,61
2023-04-02T14:18:18.063Z,61
2023-04-02T14:20:50.424Z,59
2023-04-02T14:23:19.209Z,60
2023-04-02T14:25:50.000Z,60
2023-04-02T14:28:20.555Z,60
2023-04-02T14:30:51.339Z,58
2023-04-02T14:33:21.729Z,57
2023-04-02T14:35:51.932Z,57
2023-04-02T14:38:22.023Z,59
2023-04-02T14:40:52.196Z,58
2023-04-02T14:43:22.577Z,58
2023-04-02T14:45:52.928Z,59
2023-04-02T14:48:23.310Z,58
2023-04-02T14:50:53.118Z,57
2023-04-02T14:53:22.310Z,58
2023-04-02T14:55:52.700Z,58
2023-04-02T14:58:24.538Z,58
2023-04-02T15:00:55.532Z,57
2023-04-02T15:03:24.840Z,56
2023-04-02T15:05:55.032Z,57
2023-04-02T15:08:25.265Z,57
2023-04-02T15:10:55.603Z,56
2023-04-02T15:13:25.943Z,56
2023-04-02T15:15:56.365Z,57
2023-04-02T15:18:26.717Z,57
2023-04-02T15:20:57.132Z,57
2023-04-02T15:23:27.708Z,58
2023-04-02T15:25:57.476Z,59
2023-04-02T15:28:28.008Z,59
2023-04-02T15:30:58.638Z,59
2023-04-02T15:33:29.272Z,58
2023-04-02T15:36:00.493Z,58
2023-04-02T15:38:30.333Z,58
2023-04-02T15:41:00.341Z,58
2023-04-02T15:43:30.661Z,58
2023-04-02T15:46:01.243Z,59
2023-04-02T15:48:29.937Z,59
2023-04-02T15:51:00.046Z,58
2023-04-02T15:53:30.864Z,59
2023-04-02T15:56:01.278Z,59
2023-04-02T15:58:32.326Z,59
2023-04-02T16:01:02.704Z,61
2023-04-02T16:03:31.564Z,62
2023-04-02T16:06:02.316Z,64
2023-04-02T16:08:32.420Z,61
2023-04-02T16:11:01.638Z,64
2023-04-02T16:13:31.619Z,65
2023-04-02T16:16:02.267Z,65
2023-04-02T16:18:32.505Z,66
2023-04-02T16:21:03.044Z,67
2023-04-02T16:23:33.411Z,67
2023-04-02T16:26:03.794Z,67
2023-04-02T16:28:34.298Z,67
2023-04-02T16:31:05.419Z,68
2023-04-02T16:33:34.429Z,67
2023-04-02T16:36:04.413Z,68
2023-04-02T16:38:33.062Z,65
2023-04-02T16:41:08.127Z,67
2023-04-02T16:43:33.394Z,67
2023-04-02T16:46:03.501Z,65
2023-04-02T16:48:33.896Z,65
2023-04-02T16:51:04.064Z,65
2023-04-02T16:53:34.171Z,66
2023-04-02T16:56:04.831Z,66
2023-04-02T16:58:35.010Z,65
2023-04-02T17:01:05.536Z,65
2023-04-02T17:03:35.805Z,65
2023-04-02T17:06:06.275Z,65
2023-04-02T17:08:36.374Z,65
2023-04-02T17:11:06.991Z,65
2023-04-02T17:13:37.254Z,65
2023-04-02T17:16:07.857Z,65
2023-04-02T17:18:38.142Z,66
2023-04-02T17:21:08.152Z,67
2023-04-02T17:23:46.169Z,67
2023-04-02T17:26:08.023Z,67
2023-04-02T17:28:38.108Z,68
2023-04-02T17:31:08.342Z,67
2023-04-02T17:33:38.390Z,67
2023-04-02T17:36:08.476Z,67
2023-04-02T17:38:39.882Z,67
2023-04-02T17:41:10.048Z,67
2023-04-02T17:43:40.226Z,66
2023-04-02T17:46:10.194Z,65
2023-04-02T17:48:40.030Z,66
2023-04-02T17:51:10.685Z,66
2023-04-02T17:53:41.010Z,66
2023-04-02T17:56:10.762Z,66
2023-04-02T17:58:41.011Z,66
2023-04-02T18:01:11.552Z,66
2023-04-02T18:03:41.683Z,65
2023-04-02T18:06:10.568Z,65
2023-04-02T18:08:39.106Z,65
2023-04-02T18:11:09.087Z,65
2023-04-02T18:13:39.271Z,65
2023-04-02T18:16:09.474Z,65
2023-04-02T18:18:43.932Z,65
2023-04-02T18:21:14.542Z,65
2023-04-02T18:23:45.178Z,65
2023-04-02T18:26:13.749Z,65
2023-04-02T18:28:43.897Z,65
2023-04-02T18:31:14.411Z,65
2023-04-02T18:33:44.262Z,66
2023-04-02T18:36:14.461Z,67
2023-04-02T18:38:44.567Z,68
2023-04-02T18:41:14.529Z,68
2023-04-02T18:43:44.605Z,68
2023-04-02T18:46:14.858Z,69
2023-04-02T18:48:45.861Z,69
2023-04-02T18:51:16.634Z,69
2023-04-02T18:53:47.452Z,69
2023-04-02T18:56:17.471Z,68
2023-04-02T18:58:47.492Z,68
2023-04-02T19:01:17.660Z,68
2023-04-02T19:03:48.643Z,68
2023-04-02T19:06:19.487Z,69
2023-04-02T19:08:50.045Z,69
2023-04-02T19:11:20.244Z,69
2023-04-02T19:13:49.164Z,70
2023-04-02T19:16:19.540Z,70
2023-04-02T19:18:50.213Z,70
2023-04-02T19:21:20.707Z,70
2023-04-02T19:23:50.919Z,70
2023-04-02T19:26:21.299Z,70
2023-04-02T19:28:51.364Z,71
2023-04-02T19:31:22.534Z,70
2023-04-02T19:33:53.706Z,70
2023-04-02T19:36:24.064Z,71
2023-04-02T19:38:54.357Z,70
2023-04-02T19:41:24.500Z,70
2023-04-02T19:43:54.946Z,70
2023-04-02T19:46:25.164Z,69
2023-04-02T19:48:55.178Z,69
2023-04-02T19:51:25.279Z,69
2023-04-02T19:53:55.992Z,69
2023-04-02T19:56:26.550Z,69
2023-04-02T19:58:58.317Z,68
2023-04-02T20:01:28.076Z,68
2023-04-02T20:03:56.653Z,69
2023-04-02T20:06:26.788Z,68
2023-04-02T20:08:56.820Z,69
2023-04-02T20:11:27.107Z,68
2023-04-02T20:13:55.994Z,69
2023-04-02T20:16:26.076Z,69
2023-04-02T20:18:56.269Z,69
2023-04-02T20:21:26.795Z,69
2023-04-02T20:23:57.495Z,70
2023-04-02T20:26:27.390Z,69
2023-04-02T20:28:57.878Z,69
2023-04-02T20:31:28.126Z,69
2023-04-02T20:33:58.327Z,70
2023-04-02T20:36:28.574Z,70
2023-04-02T20:38:58.697Z,70
2023-04-02T20:41:28.594Z,70
2023-04-02T20:43:56.889Z,70
2023-04-02T20:46:26.977Z,70
2023-04-02T20:48:57.334Z,70
2023-04-02T20:51:28.085Z,70
2023-04-02T20:53:58.656Z,70
2023-04-02T20:56:29.651Z,70
2023-04-02T20:58:59.911Z,70
2023-04-02T21:01:30.295Z,69
2023-04-02T21:04:00.353Z,69
2023-04-02T21:06:30.577Z,69
2023-04-02T21:09:01.439Z,70
2023-04-02T21:11:32.144Z,70
2023-04-02T21:14:00.927Z,70
2023-04-02T21:16:31.011Z,70
2023-04-02T21:19:00.727Z,70
2023-04-02T21:21:31.406Z,70
2023-04-02T21:24:01.526Z,70
2023-04-02T21:26:33.255Z,70
2023-04-02T21:29:02.252Z,70
2023-04-02T21:31:32.245Z,70
2023-04-02T21:34:02.214Z,70
2023-04-02T21:36:32.798Z,71
2023-04-02T21:39:03.369Z,71
2023-04-02T21:41:33.785Z,71
2023-04-02T21:44:04.073Z,71
2023-04-02T21:46:34.699Z,71
2023-04-02T21:49:06.425Z,71
2023-04-02T21:51:36.664Z,71
2023-04-02T21:54:06.981Z,70
2023-04-02T21:56:38.196Z,70
2023-04-02T21:59:09.150Z,68
2023-04-02T22:01:39.743Z,68
2023-04-02T22:04:10.442Z,68
2023-04-02T22:06:40.915Z,68
2023-04-02T22:09:11.619Z,68
2023-04-02T22:11:42.361Z,68
2023-04-02T22:14:12.615Z,68
2023-04-02T22:16:44.245Z,69
2023-04-02T22:19:14.918Z,69
2023-04-02T22:21:45.725Z,68
2023-04-02T22:24:16.349Z,68
2023-04-02T22:26:46.987Z,68
2023-04-02T22:29:17.370Z,68
2023-04-02T22:31:48.362Z,68
2023-04-02T22:34:18.626Z,69
2023-04-02T22:36:52.097Z,69
2023-04-02T22:39:22.477Z,69
2023-04-02T22:41:53.001Z,69
2023-04-02T22:44:23.722Z,69
2023-04-02T22:46:54.350Z,69
2023-04-02T22:49:24.777Z,70
2023-04-02T22:51:55.102Z,70
2023-04-02T22:54:25.652Z,70
2023-04-02T22:56:56.210Z,69
2023-04-02T22:59:25.177Z,70
2023-04-02T23:01:55.958Z,69
2023-04-02T23:04:26.131Z,70
2023-04-02T23:06:57.368Z,70
2023-04-02T23:09:27.767Z,71
2023-04-02T23:11:58.663Z,71
2023-04-02T23:14:29.166Z,71
2023-04-02T23:16:59.960Z,71
2023-04-02T23:19:29.204Z,71
2023-04-02T23:21:59.921Z,70
2023-04-02T23:24:29.112Z,70
2023-04-02T23:26:59.826Z,70
2023-04-02T23:29:30.030Z,71
2023-04-02T23:32:00.406Z,71
2023-04-02T23:34:30.764Z,71
2023-04-02T23:37:01.714Z,71
2023-04-02T23:39:32.049Z,71
2023-04-02T23:42:02.826Z,71
2023-04-02T23:44:32.916Z,72
2023-04-02T23:47:03.696Z,72
2023-04-02T23:49:33.027Z,72
2023-04-02T23:52:03.190Z,71
2023-04-02T23:54:34.034Z,71
2023-04-02T23:57:04.460Z,72
2023-04-02T23:59:34.800Z,71
